Time;durP1;ratioP1;P1;durP2;ratioP2;P2;SDS_P1;SDS_P2;PMS_P1;PMS_P2;Temp;Humidity;BMP_temperature;BMP_pressure;BME280_temperature;BME280_humidity;BME280_pressure;Samples;Min_cycle;Max_cycle;Signal;HPM_P1;HPM_P2
2021/01/20 00:00:29;;;;;;;41.17;17.53;;;;;;;3.85;100.00;99627.78;4999344;28;20056;-76
2021/01/20 00:02:56;;;;;;;36.97;17.43;;;;;;;3.86;100.00;99634.72;5018438;28;20036;-74
2021/01/20 00:05:22;;;;;;;40.00;18.50;;;;;;;3.87;100.00;99636.50;5042101;28;20098;-76
2021/01/20 00:07:48;;;;;;;39.40;17.33;;;;;;;3.94;100.00;99633.78;5041251;28;20038;-76
2021/01/20 00:10:16;;;;;;;36.83;17.80;;;;;;;4.05;100.00;99630.22;5015572;28;20045;-75
2021/01/20 00:12:45;;;;;;;38.07;17.37;;;;;;;4.04;100.00;99636.31;5018870;28;20131;-75
2021/01/20 00:15:14;;;;;;;39.40;15.77;;;;;;;4.04;100.00;99634.56;5040907;28;20621;-76
2021/01/20 00:17:40;;;;;;;32.17;17.27;;;;;;;4.09;100.00;99630.16;5020779;28;20398;-74
2021/01/20 00:20:08;;;;;;;28.53;15.47;;;;;;;4.09;100.00;99640.59;4998498;28;20041;-75
2021/01/20 00:22:35;;;;;;;44.43;19.20;;;;;;;4.13;100.00;99639.69;5008630;28;20047;-75
2021/01/20 00:25:01;;;;;;;36.47;16.67;;;;;;;4.15;100.00;99634.44;5031168;28;20037;-75
2021/01/20 00:27:27;;;;;;;38.47;18.07;;;;;;;4.11;100.00;99643.19;5011962;28;20616;-74
2021/01/20 00:29:54;;;;;;;35.23;16.77;;;;;;;4.16;100.00;99644.03;5032941;28;20561;-74
2021/01/20 00:32:20;;;;;;;35.23;15.90;;;;;;;4.19;100.00;99637.00;5019664;28;20530;-75
2021/01/20 00:34:47;;;;;;;32.50;14.83;;;;;;;4.31;100.00;99643.00;5017675;28;20163;-75
2021/01/20 00:37:13;;;;;;;31.30;14.60;;;;;;;4.27;100.00;99641.28;5002725;28;20041;-75
2021/01/20 00:39:39;;;;;;;32.53;14.43;;;;;;;4.30;100.00;99641.25;5006717;28;20044;-76
2021/01/20 00:42:05;;;;;;;30.33;14.53;;;;;;;4.37;100.00;99648.13;5007823;28;20494;-76
2021/01/20 00:44:31;;;;;;;27.90;12.57;;;;;;;4.33;100.00;99646.44;5036766;28;20174;-74
2021/01/20 00:46:58;;;;;;;28.60;13.20;;;;;;;4.36;100.00;99644.66;5024272;28;20132;-75
2021/01/20 00:49:24;;;;;;;30.27;13.23;;;;;;;4.36;100.00;99646.41;5037532;28;20065;-75
2021/01/20 00:51:50;;;;;;;23.83;12.40;;;;;;;4.38;100.00;99649.88;5041500;28;20038;-76
2021/01/20 00:54:16;;;;;;;28.73;12.53;;;;;;;4.39;100.00;99649.88;5021220;28;20041;-75
2021/01/20 00:56:42;;;;;;;28.23;12.83;;;;;;;4.46;100.00;99641.06;5045935;28;20045;-75
2021/01/20 00:59:08;;;;;;;26.67;12.73;;;;;;;4.43;100.00;99648.94;5037317;28;20033;-75
2021/01/20 01:01:35;;;;;;;23.53;10.93;;;;;;;4.41;100.00;99647.22;5025738;28;20857;-75
2021/01/20 01:04:01;;;;;;;22.43;12.77;;;;;;;4.50;100.00;99647.13;5038402;28;20045;-75
2021/01/20 01:06:30;;;;;;;34.27;13.87;;;;;;;4.46;100.00;99648.06;5039682;28;20446;-75
2021/01/20 01:08:56;;;;;;;22.47;11.57;;;;;;;4.41;100.00;99650.72;5022329;28;20048;-75
2021/01/20 01:11:22;;;;;;;25.37;11.10;;;;;;;4.43;100.00;99654.16;5026118;28;20029;-75
2021/01/20 01:13:48;;;;;;;21.67;10.67;;;;;;;4.46;100.00;99662.00;5025208;28;21533;-76
2021/01/20 01:16:14;;;;;;;24.20;11.53;;;;;;;4.45;100.00;99649.78;5045675;28;20033;-76
2021/01/20 01:18:41;;;;;;;22.27;11.50;;;;;;;4.43;100.00;99654.16;5025803;28;20772;-74
2021/01/20 01:21:07;;;;;;;17.97;8.93;;;;;;;4.47;100.00;99649.78;5020061;28;20422;-74
2021/01/20 01:23:33;;;;;;;18.97;10.80;;;;;;;4.45;100.00;99660.22;5000506;28;20051;-75
2021/01/20 01:25:59;;;;;;;18.80;9.67;;;;;;;4.43;100.00;99654.16;5035792;28;20084;-75
2021/01/20 01:28:25;;;;;;;20.30;10.70;;;;;;;4.46;100.00;99637.59;5012621;28;20029;-75
2021/01/20 01:30:52;;;;;;;21.70;9.67;;;;;;;4.46;100.00;99650.66;5042846;28;20033;-75
2021/01/20 01:33:21;;;;;;;20.17;9.57;;;;;;;4.39;100.00;99656.84;5022150;28;20616;-75
2021/01/20 01:35:47;;;;;;;21.53;10.07;;;;;;;4.42;100.00;99644.59;5019101;28;20033;-75
2021/01/20 01:38:13;;;;;;;21.13;9.53;;;;;;;4.43;100.00;99648.94;5043346;28;20033;-75
2021/01/20 01:40:39;;;;;;;23.13;10.57;;;;;;;4.38;100.00;99653.38;5042863;28;20682;-75
2021/01/20 01:43:05;;;;;;;20.63;10.37;;;;;;;4.35;100.00;99656.00;5013771;28;20037;-76
2021/01/20 01:45:31;;;;;;;20.77;9.57;;;;;;;4.30;100.00;99646.50;5009072;28;20042;-76
2021/01/20 01:47:57;;;;;;;18.50;9.40;;;;;;;4.37;100.00;99656.88;5007907;28;20527;-76
2021/01/20 01:50:24;;;;;;;17.40;9.17;;;;;;;4.30;100.00;99667.41;5044334;28;20128;-74
2021/01/20 01:52:50;;;;;;;22.90;10.13;;;;;;;4.29;100.00;99655.19;5024299;28;20041;-75
2021/01/20 01:55:16;;;;;;;18.27;8.70;;;;;;;4.29;100.00;99649.97;5029759;28;20048;-75
2021/01/20 01:57:43;;;;;;;16.47;8.10;;;;;;;4.31;100.00;99646.47;5021949;28;20518;-76
2021/01/20 02:00:10;;;;;;;14.20;7.67;;;;;;;4.26;100.00;99658.72;5010651;28;20029;-74
2021/01/20 02:02:37;;;;;;;14.87;8.33;;;;;;;4.27;100.00;99654.34;5025083;28;20037;-74
2021/01/20 02:05:04;;;;;;;15.67;8.33;;;;;;;4.22;100.00;99638.72;5005965;28;20045;-75
2021/01/20 02:07:31;;;;;;;15.13;8.03;;;;;;;4.18;100.00;99642.25;5047435;28;20063;-75
2021/01/20 02:09:59;;;;;;;16.07;8.70;;;;;;;4.20;100.00;99645.69;5018213;28;20047;-75
2021/01/20 02:12:31;;;;;;;14.70;8.17;;;;;;;4.20;100.00;99643.09;5030556;28;20506;-75
2021/01/20 02:15:12;;;;;;;16.53;8.10;;;;;;;4.18;100.00;99637.88;5012382;28;20048;-77
2021/01/20 02:17:46;;;;;;;16.17;8.37;;;;;;;4.13;100.00;99639.69;5022631;28;20068;-75
2021/01/20 02:23:06;;;;;;;15.73;9.13;;;;;;;4.16;100.00;99626.59;4989919;28;20033;-73
2021/01/20 02:25:33;;;;;;;15.27;8.07;;;;;;;4.14;100.00;99633.59;4993192;28;20052;-73
2021/01/20 02:28:07;;;;;;;16.03;9.17;;;;;;;4.14;100.00;99646.66;4990157;28;20037;-72
2021/01/20 02:30:35;;;;;;;16.07;8.10;;;;;;;4.18;100.00;99632.66;5005667;28;20481;-72
2021/01/20 02:33:02;;;;;;;15.13;8.20;;;;;;;4.09;100.00;99643.22;4993553;28;20153;-72
2021/01/20 02:35:29;;;;;;;16.20;7.90;;;;;;;4.02;100.00;99638.94;4991022;28;20156;-72
2021/01/20 02:37:56;;;;;;;17.20;10.27;;;;;;;4.10;100.00;99647.56;4971390;28;20057;-72
2021/01/20 02:40:23;;;;;;;15.57;8.23;;;;;;;4.03;100.00;99647.63;4987536;28;20037;-72
2021/01/20 02:42:50;;;;;;;17.50;9.00;;;;;;;4.06;100.00;99658.06;4974270;28;20057;-72
2021/01/20 02:45:16;;;;;;;14.13;7.80;;;;;;;4.02;100.00;99646.75;4990080;28;20048;-72
2021/01/20 02:47:44;;;;;;;17.97;8.87;;;;;;;4.03;100.00;99663.31;5006930;28;20046;-72
2021/01/20 02:50:10;;;;;;;14.90;8.77;;;;;;;4.09;100.00;99663.25;5005466;28;20046;-72
2021/01/20 02:52:58;;;;;;;18.43;8.73;;;;;;;4.04;100.00;99659.84;4974393;28;20178;-72
2021/01/20 02:55:27;;;;;;;12.97;7.47;;;;;;;4.01;100.00;99662.47;4968134;28;20045;-72
2021/01/20 02:57:59;;;;;;;15.93;8.07;;;;;;;4.01;100.00;99663.34;5006593;28;20038;-72
2021/01/20 03:00:26;;;;;;;16.43;9.50;;;;;;;4.04;100.00;99665.94;4988976;28;20041;-72
2021/01/20 03:02:53;;;;;;;16.30;7.80;;;;;;;4.01;100.00;99665.09;4989377;28;20034;-72
2021/01/20 03:05:20;;;;;;;13.77;7.17;;;;;;;3.95;100.00;99660.78;4990912;28;20088;-71
2021/01/20 03:07:46;;;;;;;14.60;7.47;;;;;;;3.95;100.00;99668.59;4990710;28;20698;-72
2021/01/20 03:10:13;;;;;;;15.43;8.57;;;;;;;3.87;100.00;99662.63;4989737;28;20045;-73
2021/01/20 03:12:41;;;;;;;15.30;8.07;;;;;;;3.89;100.00;99653.00;4988705;28;20458;-72
2021/01/20 03:15:28;;;;;;;17.50;8.17;;;;;;;3.80;100.00;99667.03;4989051;28;20037;-71
2021/01/20 03:17:55;;;;;;;16.00;7.73;;;;;;;3.87;100.00;99666.09;4989052;28;20046;-72
2021/01/20 03:20:21;;;;;;;17.17;9.07;;;;;;;3.79;100.00;99660.06;5006661;28;20137;-72
2021/01/20 03:22:47;;;;;;;15.10;8.43;;;;;;;3.84;100.00;99657.41;5007470;28;20562;-72
2021/01/20 03:25:14;;;;;;;16.07;8.37;;;;;;;3.83;100.00;99667.00;5007534;28;20038;-72
2021/01/20 03:27:40;;;;;;;15.10;8.17;;;;;;;3.93;100.00;99667.75;4973423;28;20772;-73
2021/01/20 03:30:07;;;;;;;15.90;8.30;;;;;;;3.81;100.00;99668.75;4989971;28;20033;-73
2021/01/20 03:32:33;;;;;;;16.60;8.90;;;;;;;3.84;100.00;99666.09;4988048;28;20038;-73
2021/01/20 03:34:59;;;;;;;15.13;8.97;;;;;;;3.82;100.00;99670.50;5006342;28;20770;-73
2021/01/20 03:37:25;;;;;;;14.67;7.87;;;;;;;3.79;100.00;99667.91;4989008;28;20053;-71
2021/01/20 03:39:51;;;;;;;14.90;8.20;;;;;;;3.81;100.00;99667.91;4988713;28;20160;-72
2021/01/20 03:42:18;;;;;;;15.57;8.37;;;;;;;3.74;100.00;99660.97;5006693;28;20916;-72
2021/01/20 03:44:44;;;;;;;13.87;8.17;;;;;;;3.67;100.00;99666.25;4996070;28;20038;-71
2021/01/20 03:47:10;;;;;;;13.50;7.63;;;;;;;3.69;100.00;99658.41;5003011;28;20491;-72
2021/01/20 03:49:37;;;;;;;15.10;7.80;;;;;;;3.71;100.00;99668.84;4989111;28;20694;-72
2021/01/20 03:52:03;;;;;;;13.83;8.37;;;;;;;3.67;100.00;99661.03;5004990;28;20034;-72
2021/01/20 03:54:29;;;;;;;13.23;7.60;;;;;;;3.59;100.00;99652.38;5005515;28;20038;-72
2021/01/20 03:56:55;;;;;;;15.90;8.43;;;;;;;3.59;100.00;99649.78;4986753;28;20045;-72
2021/01/20 03:59:21;;;;;;;15.43;9.47;;;;;;;3.67;100.00;99653.19;5005821;28;20112;-73
2021/01/20 04:01:47;;;;;;;14.53;8.23;;;;;;;3.62;100.00;99651.53;4988791;28;20041;-73
2021/01/20 04:04:14;;;;;;;14.00;7.93;;;;;;;3.61;100.00;99649.75;4973327;28;20069;-74
2021/01/20 04:06:40;;;;;;;14.03;8.53;;;;;;;3.59;100.00;99647.16;5006483;28;20037;-74
2021/01/20 04:09:06;;;;;;;14.67;7.97;;;;;;;3.56;100.00;99638.50;4989678;28;20099;-74
2021/01/20 04:11:33;;;;;;;12.63;7.43;;;;;;;3.53;100.00;99646.34;5004257;28;20049;-74
2021/01/20 04:13:59;;;;;;;15.33;8.37;;;;;;;3.55;100.00;99644.63;4985333;28;20041;-74
2021/01/20 04:16:25;;;;;;;14.37;7.67;;;;;;;3.58;100.00;99645.44;4984291;28;20037;-74
2021/01/20 04:18:53;;;;;;;10.97;6.83;;;;;;;3.52;100.00;99642.00;5005752;28;20057;-74
2021/01/20 04:21:19;;;;;;;13.83;8.67;;;;;;;3.50;100.00;99635.94;5004530;28;20502;-74
2021/01/20 04:23:45;;;;;;;12.00;6.90;;;;;;;3.49;100.00;99639.44;5006008;28;20034;-74
2021/01/20 04:26:13;;;;;;;12.90;7.47;;;;;;;3.50;100.00;99635.94;4987450;28;20033;-74
2021/01/20 04:28:39;;;;;;;13.90;8.00;;;;;;;3.49;100.00;99644.66;5005143;28;20045;-74
2021/01/20 04:31:06;;;;;;;11.27;7.27;;;;;;;3.52;100.00;99640.25;5005411;28;20117;-74
2021/01/20 04:33:32;;;;;;;11.97;6.80;;;;;;;3.48;100.00;99637.69;4985992;28;20038;-74
2021/01/20 04:35:58;;;;;;;11.80;7.80;;;;;;;3.46;100.00;99624.66;5005537;28;20042;-74
2021/01/20 04:38:25;;;;;;;12.93;8.07;;;;;;;3.41;100.00;99618.59;5003613;28;20037;-74
2021/01/20 04:40:55;;;;;;;12.37;6.77;;;;;;;3.48;100.00;99633.34;4971082;28;20037;-74
2021/01/20 04:43:22;;;;;;;10.63;6.77;;;;;;;3.43;100.00;99619.44;4979369;28;20042;-74
2021/01/20 04:45:49;;;;;;;12.37;7.47;;;;;;;3.48;100.00;99627.25;4970643;28;20492;-74
2021/01/20 04:48:19;;;;;;;12.17;7.03;;;;;;;3.40;100.00;99622.09;4984343;28;20580;-74
2021/01/20 04:50:49;;;;;;;10.53;6.97;;;;;;;3.37;100.00;99617.78;4983573;28;20048;-74
2021/01/20 04:53:15;;;;;;;10.93;6.60;;;;;;;3.34;100.00;99620.38;4987679;28;20042;-74
2021/01/20 04:55:43;;;;;;;9.67;6.60;;;;;;;3.31;100.00;99610.00;4986630;28;20038;-74
2021/01/20 04:58:10;;;;;;;11.93;8.03;;;;;;;3.31;100.00;99617.81;5004111;28;20045;-74
2021/01/20 05:00:38;;;;;;;16.23;7.80;;;;;;;3.33;100.00;99613.44;4985801;28;20050;-74
2021/01/20 05:03:08;;;;;;;12.80;7.70;;;;;;;3.30;100.00;99615.22;4987547;28;20037;-74
2021/01/20 05:05:36;;;;;;;12.13;7.60;;;;;;;3.19;100.00;99609.19;5004839;28;20041;-74
2021/01/20 05:08:05;;;;;;;12.13;7.87;;;;;;;3.21;100.00;99610.06;4987392;28;20034;-74
2021/01/20 05:10:31;;;;;;;13.33;7.73;;;;;;;3.18;100.00;99612.69;5004988;28;20042;-74
2021/01/20 05:13:00;;;;;;;13.07;7.63;;;;;;;3.17;100.00;99616.19;4989234;28;20480;-74
2021/01/20 05:15:34;;;;;;;12.20;7.70;;;;;;;3.07;100.00;99615.38;5005733;28;20038;-74
2021/01/20 05:18:02;;;;;;;12.07;7.25;;;;;;;3.05;100.00;99622.38;4983362;28;20069;-74
2021/01/20 05:20:33;;;;;;;11.37;7.63;;;;;;;3.03;100.00;99624.13;4986877;28;21021;-74
2021/01/20 05:23:03;;;;;;;17.13;9.47;;;;;;;3.03;100.00;99625.00;5005706;28;20497;-73
2021/01/20 05:25:42;;;;;;;15.23;8.13;;;;;;;2.99;100.00;99622.41;4987040;28;20042;-74
2021/01/20 05:28:26;;;;;;;13.13;8.43;;;;;;;2.92;100.00;99618.09;5002844;28;20037;-74
2021/01/20 05:30:57;;;;;;;12.43;8.40;;;;;;;2.87;100.00;99615.53;5000208;28;20044;-74
2021/01/20 05:33:25;;;;;;;13.27;8.33;;;;;;;2.93;100.00;99622.44;4972288;28;20069;-73
2021/01/20 05:36:11;;;;;;;14.77;9.27;;;;;;;2.91;100.00;99625.03;4987385;28;20041;-73
2021/01/20 05:38:51;;;;;;;15.53;9.47;;;;;;;2.93;100.00;99610.25;5004503;28;20042;-74
2021/01/20 05:41:22;;;;;;;14.03;8.60;;;;;;;2.90;100.00;99612.88;5005372;28;20033;-73
2021/01/20 05:44:08;;;;;;;14.07;8.80;;;;;;;2.87;100.00;99612.06;4987227;28;20041;-73
2021/01/20 05:46:36;;;;;;;13.77;8.73;;;;;;;2.87;100.00;99612.06;5002863;28;20034;-71
2021/01/20 05:49:04;;;;;;;13.93;9.23;;;;;;;2.74;100.00;99606.03;4990626;28;20045;-72
2021/01/20 05:51:40;;;;;;;14.10;7.63;;;;;;;2.71;100.00;99606.06;4985884;28;20124;-71
2021/01/20 05:54:06;;;;;;;11.83;7.83;;;;;;;2.72;100.00;99613.88;4987054;28;20097;-72
2021/01/20 05:56:32;;;;;;;15.03;8.03;;;;;;;2.69;100.00;99603.47;4988011;28;20030;-72
2021/01/20 05:58:59;;;;;;;14.27;8.80;;;;;;;2.63;100.00;99613.91;4986663;28;20038;-71
2021/01/20 06:01:25;;;;;;;13.50;8.13;;;;;;;2.60;100.00;99606.09;4986198;28;20046;-71
2021/01/20 06:03:52;;;;;;;14.00;8.00;;;;;;;2.50;100.00;99607.00;4990775;28;20034;-72
2021/01/20 06:06:20;;;;;;;14.53;8.03;;;;;;;2.45;100.00;99611.41;4991974;28;20045;-71
2021/01/20 06:08:47;;;;;;;13.50;8.30;;;;;;;2.46;100.00;99618.34;5007821;28;20967;-72
2021/01/20 06:11:16;;;;;;;16.10;8.50;;;;;;;2.48;100.00;99617.47;4989561;28;20422;-71
2021/01/20 06:13:42;;;;;;;12.03;7.57;;;;;;;2.50;100.00;99617.44;5008704;28;20049;-72
2021/01/20 06:16:20;;;;;;;11.83;7.47;;;;;;;2.48;100.00;99609.63;4975613;28;20496;-72
2021/01/20 06:18:53;;;;;;;12.80;7.87;;;;;;;2.52;100.00;99615.69;4991773;28;20069;-71
2021/01/20 06:21:19;;;;;;;11.03;7.73;;;;;;;2.62;100.00;99608.72;5009232;28;20034;-71
2021/01/20 06:23:56;;;;;;;11.13;6.97;;;;;;;2.48;100.00;99611.38;4991655;28;20049;-71
2021/01/20 06:26:24;;;;;;;10.27;6.40;;;;;;;2.40;100.00;99611.41;4998285;28;20034;-72
2021/01/20 06:28:53;;;;;;;11.43;7.00;;;;;;;2.37;100.00;99606.22;5007207;28;20112;-72
2021/01/20 06:31:19;;;;;;;11.70;6.93;;;;;;;2.40;100.00;99607.94;4988259;28;20404;-72
2021/01/20 06:33:46;;;;;;;9.10;6.23;;;;;;;2.37;100.00;99601.00;4993095;28;20669;-72
2021/01/20 06:36:35;;;;;;;9.27;6.40;;;;;;;2.33;100.00;99601.88;4999461;28;20038;-72
2021/01/20 06:39:27;;;;;;;10.60;6.47;;;;;;;2.28;100.00;99601.03;4995215;28;20454;-72
2021/01/20 06:41:54;;;;;;;12.03;6.37;;;;;;;2.21;100.00;99602.81;4991111;28;20046;-72
2021/01/20 06:44:20;;;;;;;14.10;7.80;;;;;;;2.15;100.00;99608.03;4990845;28;20410;-71
2021/01/20 06:46:55;;;;;;;7.37;5.87;;;;;;;2.28;100.00;99600.19;4990955;28;20049;-72
2021/01/20 06:49:28;;;;;;;10.77;6.10;;;;;;;2.28;100.00;99593.22;5007350;28;20034;-72
2021/01/20 06:52:13;;;;;;;9.87;6.33;;;;;;;2.28;100.00;99600.19;4991416;28;20045;-72
2021/01/20 06:54:44;;;;;;;10.33;6.53;;;;;;;2.28;100.00;99608.00;4990004;28;20038;-72
2021/01/20 06:57:30;;;;;;;9.63;5.87;;;;;;;2.25;100.00;99612.31;4978340;28;20034;-71
2021/01/20 07:00:05;;;;;;;8.97;5.90;;;;;;;2.36;100.00;99611.44;4991734;28;20084;-71
2021/01/20 07:02:32;;;;;;;7.37;5.00;;;;;;;2.36;100.00;99609.69;5000875;28;20042;-71
2021/01/20 07:04:58;;;;;;;8.03;5.17;;;;;;;2.37;100.00;99615.78;4991088;28;20069;-72
2021/01/20 07:07:50;;;;;;;9.57;5.00;;;;;;;2.38;100.00;99612.28;4991104;28;20043;-72
2021/01/20 07:10:18;;;;;;;8.53;4.63;;;;;;;2.36;100.00;99620.13;5007958;28;20038;-71
2021/01/20 07:13:13;;;;;;;7.77;4.43;;;;;;;2.33;100.00;99620.13;4985648;28;20046;-72
2021/01/20 07:15:40;;;;;;;7.85;4.45;;;;;;;2.35;100.00;99607.06;4987776;28;20042;-72
2021/01/20 07:18:07;;;;;;;8.60;4.60;;;;;;;2.36;100.00;99614.91;4989907;28;20108;-71
2021/01/20 07:20:34;;;;;;;6.83;3.97;;;;;;;2.33;100.00;99608.84;4988046;28;20456;-71
2021/01/20 07:23:00;;;;;;;8.30;5.17;;;;;;;2.31;100.00;99605.38;4987534;28;20042;-72
2021/01/20 07:25:27;;;;;;;6.27;4.20;;;;;;;2.35;100.00;99604.47;5008441;28;20395;-72
2021/01/20 07:27:53;;;;;;;6.17;4.10;;;;;;;2.37;100.00;99610.56;4991159;28;20033;-71
2021/01/20 07:30:20;;;;;;;7.43;3.53;;;;;;;2.32;100.00;99601.88;4993985;28;20074;-71
2021/01/20 07:32:46;;;;;;;4.90;3.57;;;;;;;2.29;100.00;99602.78;5003428;28;20042;-71
2021/01/20 07:35:21;;;;;;;6.83;4.27;;;;;;;2.26;100.00;99600.16;5008115;28;20041;-72
2021/01/20 07:38:05;;;;;;;6.23;3.73;;;;;;;2.31;100.00;99610.59;4990675;28;20042;-72
2021/01/20 07:40:35;;;;;;;4.27;3.20;;;;;;;2.43;100.00;99610.53;4989371;28;20042;-71
2021/01/20 07:43:02;;;;;;;7.00;3.67;;;;;;;2.40;100.00;99600.97;4973287;28;20041;-72
2021/01/20 07:45:33;;;;;;;6.00;3.70;;;;;;;2.37;100.00;99605.34;4989672;28;20518;-71
2021/01/20 07:48:01;;;;;;;5.10;3.30;;;;;;;2.38;100.00;99607.09;5007634;28;20408;-71
2021/01/20 07:50:45;;;;;;;7.00;3.23;;;;;;;2.37;100.00;99605.34;5006328;28;20038;-72
2021/01/20 07:53:18;;;;;;;7.07;3.40;;;;;;;2.36;100.00;99604.50;5001711;28;20407;-72
2021/01/20 07:55:46;;;;;;;7.22;3.42;;;;;;;2.40;100.00;99610.53;5006317;28;20038;-71
2021/01/20 07:58:16;;;;;;;6.53;3.27;;;;;;;2.39;100.00;99608.81;4975737;28;20521;-72
2021/01/20 08:00:46;;;;;;;6.10;3.77;;;;;;;2.42;100.00;99612.25;5007770;28;20038;-71
2021/01/20 08:03:14;;;;;;;9.60;3.97;;;;;;;2.49;100.00;99615.72;5005623;28;20116;-72
2021/01/20 08:05:45;;;;;;;6.40;3.80;;;;;;;2.60;100.00;99613.03;4984546;28;20483;-71
2021/01/20 08:08:14;;;;;;;5.10;3.67;;;;;;;2.58;100.00;99607.84;4986176;28;20470;-71
2021/01/20 08:10:42;;;;;;;6.40;3.17;;;;;;;2.56;100.00;99622.63;4986683;28;20037;-71
2021/01/20 08:13:12;;;;;;;5.90;3.93;;;;;;;2.61;100.00;99615.66;5007020;28;20076;-72
2021/01/20 08:15:40;;;;;;;5.20;3.20;;;;;;;2.58;100.00;99615.66;4990031;28;20048;-72
2021/01/20 08:18:12;;;;;;;4.83;3.10;;;;;;;2.66;100.00;99606.06;4988924;28;20033;-71
2021/01/20 08:20:39;;;;;;;5.03;3.53;;;;;;;2.69;100.00;99602.56;4989237;28;20045;-71
2021/01/20 08:23:14;;;;;;;4.93;3.27;;;;;;;2.73;100.00;99606.91;4989120;28;20507;-72
2021/01/20 08:25:41;;;;;;;4.93;3.17;;;;;;;2.77;100.00;99606.84;4976749;28;20050;-71
2021/01/20 08:28:11;;;;;;;4.07;2.77;;;;;;;2.85;100.00;99614.66;5006264;28;20046;-71
2021/01/20 08:30:38;;;;;;;5.43;3.27;;;;;;;2.87;100.00;99601.63;5005487;28;20045;-71
2021/01/20 08:33:05;;;;;;;4.30;2.77;;;;;;;2.88;100.00;99619.88;5004716;28;20045;-71
2021/01/20 08:35:36;;;;;;;5.37;2.90;;;;;;;2.92;99.85;99607.66;5006231;28;20056;-71
2021/01/20 08:38:04;;;;;;;4.67;2.73;;;;;;;2.83;100.00;99612.06;4989314;28;20042;-71
2021/01/20 08:40:30;;;;;;;4.30;2.90;;;;;;;2.86;99.60;99602.47;4974075;28;20541;-71
2021/01/20 08:42:56;;;;;;;4.90;3.83;;;;;;;2.87;100.00;99601.63;4993172;28;20511;-71
2021/01/20 08:45:39;;;;;;;5.60;3.47;;;;;;;2.87;100.00;99596.41;5005787;28;20053;-71
2021/01/20 08:48:06;;;;;;;4.27;2.70;;;;;;;2.95;99.86;99599.81;5006511;28;20045;-71
2021/01/20 08:50:37;;;;;;;4.57;2.83;;;;;;;2.94;99.43;99579.81;5006787;28;20495;-71
2021/01/20 08:53:10;;;;;;;5.53;3.53;;;;;;;2.97;100.00;99593.72;5000671;28;20036;-71
2021/01/20 08:55:41;;;;;;;5.73;4.07;;;;;;;2.93;99.46;99585.91;4991669;28;20030;-71
2021/01/20 08:58:22;;;;;;;7.23;3.10;;;;;;;2.97;99.03;99588.50;4983989;28;20038;-71
2021/01/20 09:00:53;;;;;;;5.30;2.93;;;;;;;2.99;99.83;99583.25;5002173;28;20041;-71
2021/01/20 09:03:21;;;;;;;5.13;3.00;;;;;;;3.02;99.61;99586.69;5005900;28;20107;-71
2021/01/20 09:05:49;;;;;;;7.33;2.83;;;;;;;3.07;99.58;99594.50;5002291;28;20284;-71
2021/01/20 09:08:15;;;;;;;5.97;4.30;;;;;;;3.15;98.78;99591.84;4989443;28;20450;-71
2021/01/20 09:10:43;;;;;;;5.80;2.90;;;;;;;3.23;97.61;99588.28;4988952;28;20046;-71
2021/01/20 09:13:09;;;;;;;3.90;2.40;;;;;;;3.41;96.38;99583.78;4989561;28;20491;-71
2021/01/20 09:15:35;;;;;;;4.80;3.07;;;;;;;3.46;96.12;99579.41;5005697;28;20050;-71
2021/01/20 09:18:02;;;;;;;5.63;3.17;;;;;;;3.61;95.68;99585.34;4985720;28;20037;-71
2021/01/20 09:20:29;;;;;;;5.90;2.77;;;;;;;3.69;94.05;99574.81;5001976;28;20116;-71
2021/01/20 09:22:55;;;;;;;6.43;3.07;;;;;;;3.72;93.17;99572.19;4985611;28;20054;-71
2021/01/20 09:25:22;;;;;;;5.70;3.43;;;;;;;3.77;93.16;99566.91;5002599;28;20029;-73
2021/01/20 09:27:48;;;;;;;4.73;2.57;;;;;;;3.78;92.61;99581.69;4989577;28;20065;-74
2021/01/20 09:30:15;;;;;;;4.33;2.77;;;;;;;3.92;92.87;99578.06;5002673;28;20034;-72
2021/01/20 09:32:41;;;;;;;3.50;2.57;;;;;;;4.09;92.80;99574.38;5001810;28;20034;-73
2021/01/20 09:35:10;;;;;;;3.50;2.60;;;;;;;4.17;92.32;99567.31;5005128;28;20041;-74
2021/01/20 09:37:37;;;;;;;4.33;2.83;;;;;;;4.21;92.39;99579.50;5007518;28;20065;-75
2021/01/20 09:40:05;;;;;;;5.33;2.83;;;;;;;4.34;90.88;99573.22;4988519;28;20037;-73
2021/01/20 09:42:31;;;;;;;3.43;2.23;;;;;;;4.53;90.53;99569.47;5004761;28;20049;-75
2021/01/20 09:44:57;;;;;;;3.83;2.10;;;;;;;4.69;87.69;99566.63;5006985;28;20042;-71
2021/01/20 09:47:29;;;;;;;4.23;2.47;;;;;;;5.00;85.86;99556.59;5010336;28;20038;-74
2021/01/20 09:49:59;;;;;;;5.20;2.67;;;;;;;5.19;86.37;99547.53;4974605;28;20065;-73
2021/01/20 09:52:27;;;;;;;3.60;2.20;;;;;;;5.25;86.28;99557.94;4991583;28;20048;-74
2021/01/20 09:54:53;;;;;;;4.77;2.97;;;;;;;5.34;85.77;99552.53;5005875;28;20044;-73
2021/01/20 09:57:21;;;;;;;5.47;2.80;;;;;;;5.34;83.74;99547.28;5006906;28;20034;-73
2021/01/20 09:59:48;;;;;;;4.70;2.50;;;;;;;5.71;83.75;99549.25;4987872;28;21039;-76
2021/01/20 10:02:14;;;;;;;4.57;2.90;;;;;;;6.06;82.05;99550.38;4990725;28;20046;-74
2021/01/20 10:04:41;;;;;;;7.77;3.87;;;;;;;6.57;81.27;99535.31;4989469;28;20089;-74
2021/01/20 10:07:08;;;;;;;6.20;3.43;;;;;;;6.96;76.63;99524.78;4987731;28;20503;-74
2021/01/20 10:09:35;;;;;;;3.67;2.50;;;;;;;7.11;76.79;99532.28;4988066;28;20038;-73
2021/01/20 10:12:01;;;;;;;4.73;2.90;;;;;;;6.85;75.95;99532.06;4992754;28;20049;-72
2021/01/20 10:14:27;;;;;;;6.10;3.53;;;;;;;6.80;76.67;99526.91;5009160;28;20038;-72
2021/01/20 10:16:54;;;;;;;4.40;2.77;;;;;;;6.63;78.27;99519.41;5009468;28;20030;-72
2021/01/20 10:19:20;;;;;;;3.67;2.70;;;;;;;6.94;78.80;99518.72;5007211;28;20065;-72
2021/01/20 10:21:46;;;;;;;5.37;3.63;;;;;;;7.05;78.36;99512.28;5008608;28;20038;-72
2021/01/20 10:24:13;;;;;;;4.30;2.80;;;;;;;7.21;75.67;99519.78;5007318;28;20042;-72
2021/01/20 10:26:39;;;;;;;5.70;2.60;;;;;;;7.26;75.09;99510.03;5008105;28;20038;-72
2021/01/20 10:29:06;;;;;;;4.10;2.67;;;;;;;7.05;76.77;99520.16;5010086;28;20104;-72
2021/01/20 10:31:40;;;;;;;3.07;2.37;;;;;;;6.84;76.64;99514.56;4989936;28;20083;-72
2021/01/20 10:34:10;;;;;;;3.92;2.92;;;;;;;6.76;78.31;99515.63;4989884;28;20115;-72
2021/01/20 10:36:37;;;;;;;5.00;2.97;;;;;;;6.75;78.54;99507.78;4991418;28;20108;-72
2021/01/20 10:39:05;;;;;;;3.30;2.40;;;;;;;6.69;79.58;99502.66;4977387;28;20104;-72
2021/01/20 10:41:31;;;;;;;3.40;2.30;;;;;;;6.68;80.26;99501.81;4988962;28;20594;-72
2021/01/20 10:43:58;;;;;;;6.10;3.23;;;;;;;6.62;78.94;99506.31;5004211;28;20069;-72
2021/01/20 10:46:27;;;;;;;3.37;2.30;;;;;;;6.65;78.75;99507.13;4989895;28;20084;-72
2021/01/20 10:48:54;;;;;;;4.03;2.90;;;;;;;6.59;79.34;99509.91;4987960;28;20038;-72
2021/01/20 10:51:21;;;;;;;3.60;2.60;;;;;;;6.76;77.87;99502.50;5002149;28;20159;-72
2021/01/20 10:53:47;;;;;;;3.83;2.50;;;;;;;6.99;77.56;99499.31;4988879;28;20041;-72
2021/01/20 10:56:14;;;;;;;3.97;2.30;;;;;;;6.92;76.87;99507.38;4967655;28;20057;-72
2021/01/20 10:58:40;;;;;;;3.30;2.20;;;;;;;6.92;78.15;99502.13;4991043;28;20053;-72
2021/01/20 11:01:06;;;;;;;3.30;2.17;;;;;;;6.91;78.83;99497.78;4989507;28;20125;-72
2021/01/20 11:03:32;;;;;;;2.70;2.40;;;;;;;6.77;77.99;99501.59;5006041;28;20127;-72
2021/01/20 11:05:59;;;;;;;6.60;2.83;;;;;;;6.81;77.70;99491.00;5005323;28;20042;-72
2021/01/20 11:08:25;;;;;;;3.83;2.60;;;;;;;6.76;77.98;99496.38;5005399;28;20042;-72
2021/01/20 11:10:51;;;;;;;3.30;2.60;;;;;;;6.67;77.44;99493.97;5005681;28;20274;-72
2021/01/20 11:13:18;;;;;;;3.90;2.70;;;;;;;6.81;77.70;99491.00;5004406;28;20048;-72
2021/01/20 11:15:47;;;;;;;4.17;2.40;;;;;;;6.95;77.59;99486.28;4975078;28;20046;-72
2021/01/20 11:18:18;;;;;;;3.33;2.23;;;;;;;7.08;76.40;99487.72;4987687;28;20049;-72
2021/01/20 11:20:46;;;;;;;3.97;2.30;;;;;;;6.90;75.09;99498.69;4987766;28;20065;-72
2021/01/20 11:23:16;;;;;;;3.00;2.40;;;;;;;6.77;76.04;99493.72;4988544;28;20045;-72
2021/01/20 11:25:44;;;;;;;4.90;2.40;;;;;;;6.78;77.53;99492.81;5005311;28;20654;-71
2021/01/20 11:28:11;;;;;;;3.33;2.40;;;;;;;6.76;77.13;99484.13;4971521;28;20041;-72
2021/01/20 11:30:38;;;;;;;4.80;2.10;;;;;;;6.73;76.45;99481.56;4988370;28;20041;-71
2021/01/20 11:33:04;;;;;;;4.03;2.20;;;;;;;6.74;75.77;99479.81;4987736;28;20045;-71
2021/01/20 11:35:31;;;;;;;3.37;2.13;;;;;;;6.61;77.43;99479.22;4986695;28;20423;-72
2021/01/20 11:37:57;;;;;;;5.43;4.10;;;;;;;6.46;76.26;99476.94;5004577;28;20553;-71